Time;durP1;ratioP1;P1;durP2;ratioP2;P2;SDS_P1;SDS_P2;PMS_P1;PMS_P2;Temp;Humidity;BMP_temperature;BMP_pressure;BME280_temperature;BME280_humidity;BME280_pressure;Samples;Min_cycle;Max_cycle;Signal;HPM_P1;HPM_P2
2022/10/04 00:02:18;;;;;;;81.13;34.88;;;;;;;29.23;79.34;100898.25;5011305;28;66120;-39
2022/10/04 00:05:02;;;;;;;;;;;;;;;29.48;80.99;100964.13;5017232;28;70532;-40
2022/10/04 00:07:43;;;;;;;65.20;34.03;;;;;;;29.28;80.16;100883.09;5011054;28;65631;-40
2022/10/04 00:10:35;;;;;;;74.80;33.55;;;;;;;29.72;80.02;100975.34;5014882;28;70264;-40
2022/10/04 00:13:14;;;;;;;63.97;33.77;;;;;;;29.30;80.01;100902.59;5018083;28;65702;-40
2022/10/04 00:15:50;;;;;;;64.97;31.65;;;;;;;29.56;78.13;100952.25;5020523;28;69637;-39
2022/10/04 00:18:44;;;;;;;48.17;24.65;;;;;;;29.58;79.26;100977.22;5019193;28;66344;-39
2022/10/04 00:21:15;;;;;;;35.97;20.23;;;;;;;29.65;76.85;100991.59;5019720;28;70506;-39
2022/10/04 00:23:47;;;;;;;24.73;17.92;;;;;;;29.55;77.26;101001.94;5019504;28;65721;-38
2022/10/04 00:26:27;;;;;;;22.65;16.52;;;;;;;29.49;76.81;101002.78;5019252;28;69660;-39
2022/10/04 00:29:18;;;;;;;24.77;16.33;;;;;;;29.37;77.46;101003.41;5003367;28;66126;-39
2022/10/04 00:32:07;;;;;;;25.23;17.38;;;;;;;29.33;76.99;101009.44;5018641;28;69464;-39
2022/10/04 00:34:46;;;;;;;23.35;16.33;;;;;;;29.38;77.42;101007.78;5002623;28;65442;-39
2022/10/04 00:37:20;;;;;;;21.38;15.65;;;;;;;29.53;76.81;101022.94;5010947;28;70488;-39
2022/10/04 00:40:14;;;;;;;26.15;17.27;;;;;;;28.99;77.70;100934.78;5017129;28;66385;-39
2022/10/04 00:42:59;;;;;;;25.13;15.60;;;;;;;29.09;74.96;100932.53;5013434;28;69679;-40
2022/10/04 00:45:33;;;;;;;20.40;14.27;;;;;;;29.79;73.70;101022.97;5016420;28;65622;-40
2022/10/04 00:48:08;;;;;;;24.88;14.38;;;;;;;29.84;73.12;101017.78;5018720;28;70710;-39
2022/10/04 00:50:50;;;;;;;26.10;15.50;;;;;;;29.78;72.61;101007.81;5010994;28;66165;-39
2022/10/04 00:53:52;;;;;;;18.77;14.40;;;;;;;29.77;73.26;101033.16;4997947;28;70219;-39
2022/10/04 00:56:36;;;;;;;20.17;14.88;;;;;;;29.89;72.70;101025.25;5010647;28;66099;-39
2022/10/04 00:59:16;;;;;;;20.10;13.70;;;;;;;30.01;72.82;101034.41;5008973;28;70337;-40
2022/10/04 01:01:52;;;;;;;21.70;14.40;;;;;;;29.51;72.45;100952.91;5018081;28;66220;-40
2022/10/04 01:04:35;;;;;;;18.35;14.02;;;;;;;30.09;72.04;101037.91;5020108;28;69665;-39
2022/10/04 01:07:09;;;;;;;18.65;14.50;;;;;;;30.11;71.98;101033.94;5020039;28;65744;-39
2022/10/04 01:10:07;;;;;;;15.60;13.98;;;;;;;30.02;72.28;101029.81;5019823;28;70223;-40
2022/10/04 01:12:40;;;;;;;17.38;14.48;;;;;;;30.16;72.31;101031.44;5019731;28;65964;-40
2022/10/04 01:15:17;;;;;;;18.38;14.35;;;;;;;30.20;72.47;101032.69;5016246;28;69760;-40
2022/10/04 01:18:14;;;;;;;18.63;14.38;;;;;;;30.11;72.29;101033.13;5017523;28;66719;-40
2022/10/04 01:20:56;;;;;;;15.85;13.73;;;;;;;30.20;72.26;101043.53;5011859;28;69952;-39
2022/10/04 01:23:53;;;;;;;19.70;13.77;;;;;;;30.25;71.98;101051.84;5007359;28;66195;-40
2022/10/04 01:26:31;;;;;;;22.40;15.27;;;;;;;30.30;72.61;101039.56;5011811;28;70578;-40
2022/10/04 01:29:11;;;;;;;18.90;14.38;;;;;;;30.23;72.51;101028.75;5010753;28;65585;-40
2022/10/04 01:31:46;;;;;;;21.52;14.15;;;;;;;29.71;72.43;100936.69;5011376;28;69502;-39
2022/10/04 01:34:22;;;;;;;14.80;13.30;;;;;;;30.36;72.41;101041.41;5012460;28;66409;-40
2022/10/04 01:36:58;;;;;;;18.45;13.98;;;;;;;30.38;72.31;101042.03;5008840;28;69597;-39
2022/10/04 01:39:29;;;;;;;15.07;12.73;;;;;;;30.40;72.76;101037.25;5006605;28;65887;-39
2022/10/04 01:42:13;;;;;;;22.90;15.10;;;;;;;30.38;72.23;101037.44;5008371;28;69359;-40
2022/10/04 01:44:49;;;;;;;15.40;13.27;;;;;;;30.44;72.15;101041.19;5005619;28;66326;-40
2022/10/04 01:47:27;;;;;;;17.88;12.90;;;;;;;29.95;72.24;100959.50;5014271;28;70027;-40
2022/10/04 01:50:04;;;;;;;18.88;13.77;;;;;;;30.46;72.55;101041.81;5003495;28;65667;-40
2022/10/04 01:52:47;;;;;;;15.35;13.25;;;;;;;30.45;72.56;101027.44;5013074;28;69644;-41
2022/10/04 01:55:20;;;;;;;;;;;;;;;30.11;73.82;101043.94;5017134;28;66402;-40
2022/10/04 01:58:08;;;;;;;14.45;12.88;;;;;;;30.37;72.42;101037.66;5019382;28;71022;-40
2022/10/04 02:00:54;;;;;;;20.10;13.38;;;;;;;30.48;72.43;101045.13;5016796;28;66193;-40
2022/10/04 02:03:38;;;;;;;13.90;12.52;;;;;;;30.51;72.84;101031.16;5013440;28;70050;-40
2022/10/04 02:06:12;;;;;;;17.00;13.25;;;;;;;30.37;72.68;101005.16;5012289;28;65423;-41
2022/10/04 02:08:50;;;;;;;13.93;11.98;;;;;;;29.93;72.48;100922.91;5011612;28;70260;-40
2022/10/04 02:11:21;;;;;;;13.85;12.43;;;;;;;30.62;72.74;101035.91;4983043;28;66205;-40
2022/10/04 02:13:54;;;;;;;14.63;12.60;;;;;;;30.62;72.60;101033.19;5018452;28;70766;-40
2022/10/04 02:16:26;;;;;;;14.32;12.70;;;;;;;30.57;72.45;101022.19;5014098;28;66666;-41
2022/10/04 02:18:58;;;;;;;15.02;12.50;;;;;;;30.67;72.36;101038.81;5014877;28;70175;-40
2022/10/04 02:21:30;;;;;;;13.57;12.18;;;;;;;30.70;72.38;101032.09;5018945;28;66167;-41
2022/10/04 02:24:02;;;;;;;15.43;11.90;;;;;;;30.71;72.14;101037.31;5016289;28;69219;-40
2022/10/04 02:26:33;;;;;;;18.15;12.73;;;;;;;30.70;72.56;101035.66;5018754;28;65241;-40
2022/10/04 02:29:04;;;;;;;12.83;11.57;;;;;;;30.70;72.28;101032.97;5003004;28;70797;-39
2022/10/04 02:34:28;;;;;;;12.68;11.50;;;;;;;30.77;72.19;101032.91;5019496;28;70938;-41
2022/10/04 02:37:04;;;;;;;12.93;11.80;;;;;;;30.73;72.32;101021.69;5017885;28;65983;-41
2022/10/04 02:39:50;;;;;;;13.73;12.32;;;;;;;30.26;72.50;100944.47;4979772;28;69746;-40
2022/10/04 02:42:35;;;;;;;13.93;12.45;;;;;;;30.82;72.25;101024.19;5017421;28;66741;-40
2022/10/04 02:45:18;;;;;;;16.48;12.35;;;;;;;30.86;71.90;101025.41;5017912;28;70271;-40
2022/10/04 02:47:59;;;;;;;12.32;11.15;;;;;;;30.82;71.91;101018.78;5018377;28;65816;-40
2022/10/04 02:50:35;;;;;;;13.07;11.73;;;;;;;30.38;72.06;100937.31;5013111;28;70090;-40
2022/10/04 02:53:14;;;;;;;16.30;11.93;;;;;;;30.40;71.58;100935.22;5018142;28;67219;-40
2022/10/04 02:55:46;;;;;;;12.30;11.15;;;;;;;30.87;71.53;101002.66;5018014;28;69649;-40
2022/10/04 02:58:21;;;;;;;12.15;10.88;;;;;;;30.94;71.54;101008.88;5018275;28;65331;-40
2022/10/04 03:00:58;;;;;;;12.73;11.25;;;;;;;30.90;71.89;100999.56;5014399;28;70187;-40
2022/10/04 03:03:39;;;;;;;12.93;11.65;;;;;;;30.06;71.88;100868.72;5018025;28;66549;-40
2022/10/04 03:06:14;;;;;;;15.48;10.93;;;;;;;30.38;71.36;100912.94;5013632;28;70905;-40
2022/10/04 03:08:50;;;;;;;12.32;11.10;;;;;;;31.01;71.57;101012.41;5016230;28;66673;-41
2022/10/04 03:11:26;;;;;;;12.80;11.52;;;;;;;31.03;71.34;100999.44;5014188;28;70635;-40
2022/10/04 03:14:01;;;;;;;11.68;10.55;;;;;;;31.06;71.55;101009.03;5015432;28;66158;-40
2022/10/04 03:16:41;;;;;;;11.70;10.80;;;;;;;31.03;71.28;100999.44;5013178;28;69416;-40
2022/10/04 03:19:16;;;;;;;15.65;12.40;;;;;;;30.53;71.45;100901.81;5014659;28;66189;-41
2022/10/04 03:21:51;;;;;;;15.23;11.75;;;;;;;31.02;71.09;100969.88;5001574;28;69363;-40
2022/10/04 03:24:30;;;;;;;12.70;11.48;;;;;;;31.01;70.94;100955.50;5016302;28;65955;-40
2022/10/04 03:27:05;;;;;;;12.63;11.07;;;;;;;30.65;70.85;100894.69;5018742;28;70677;-40
2022/10/04 03:29:43;;;;;;;14.35;12.30;;;;;;;31.09;70.58;100960.66;5017712;28;66736;-40
2022/10/04 03:32:17;;;;;;;11.27;10.13;;;;;;;30.75;70.77;100883.34;5016242;28;70654;-40
2022/10/04 03:35:18;;;;;;;13.77;11.43;;;;;;;31.11;70.50;100961.25;5018224;28;66833;-41
2022/10/04 03:37:49;;;;;;;12.77;11.40;;;;;;;31.24;70.66;100954.09;5015912;28;69434;-40
2022/10/04 03:40:26;;;;;;;12.83;11.63;;;;;;;30.86;70.39;100873.72;5014541;28;66631;-40
2022/10/04 03:43:00;;;;;;;17.50;12.63;;;;;;;30.90;70.20;100874.97;5017402;28;69879;-42
2022/10/04 03:45:34;;;;;;;13.02;11.50;;;;;;;31.16;70.31;100907.22;5019761;28;66155;-40
2022/10/04 03:48:12;;;;;;;15.40;12.27;;;;;;;31.14;70.10;100898.50;5023009;28;69588;-41
2022/10/04 03:50:48;;;;;;;15.73;12.55;;;;;;;31.28;70.11;100922.75;5018222;28;65566;-40
2022/10/04 03:53:41;;;;;;;13.07;11.90;;;;;;;30.79;70.31;100843.16;5005389;28;69265;-42
2022/10/04 03:56:25;;;;;;;15.88;12.57;;;;;;;31.36;70.65;100941.50;5012674;28;65628;-41
2022/10/04 03:58:57;;;;;;;16.67;12.35;;;;;;;31.42;69.91;100918.91;5014090;28;70506;-41
2022/10/04 04:01:43;;;;;;;13.80;12.45;;;;;;;30.96;70.18;100852.41;5020832;28;66575;-41
2022/10/04 04:04:24;;;;;;;16.08;12.60;;;;;;;31.26;69.93;100886.91;5021678;28;70199;-41
2022/10/04 04:07:02;;;;;;;14.48;12.98;;;;;;;31.39;70.01;100898.50;5015016;28;65615;-41
2022/10/04 04:09:44;;;;;;;16.75;14.77;;;;;;;31.48;69.61;100892.78;5021508;28;70172;-41
2022/10/04 04:12:32;;;;;;;18.73;14.90;;;;;;;31.32;69.57;100872.50;5017257;28;66304;-40
2022/10/04 04:15:06;;;;;;;26.52;16.00;;;;;;;31.52;69.62;100877.75;5015934;28;70061;-40
2022/10/04 04:17:46;;;;;;;16.00;14.35;;;;;;;31.03;69.55;100809.81;5016182;28;65345;-40
2022/10/04 04:20:28;;;;;;;19.00;14.77;;;;;;;31.50;69.41;100872.53;5021650;28;70225;-40
2022/10/04 04:23:31;;;;;;;21.30;15.23;;;;;;;31.40;69.44;100869.53;5020885;28;66231;-40
2022/10/04 04:26:31;;;;;;;20.13;15.32;;;;;;;31.09;70.07;100802.66;5018365;28;69745;-40
2022/10/04 04:29:26;;;;;;;17.25;14.15;;;;;;;31.55;69.39;100861.03;5012811;28;67495;-40
2022/10/04 04:32:19;;;;;;;16.55;14.25;;;;;;;31.46;69.65;100852.38;5015002;28;70023;-40
2022/10/04 04:34:57;;;;;;;16.42;14.32;;;;;;;31.57;69.55;100846.19;5012238;28;67530;-40
2022/10/04 04:37:29;;;;;;;16.08;14.10;;;;;;;31.59;69.74;100852.22;5014516;28;69901;-41
2022/10/04 04:40:18;;;;;;;16.53;14.03;;;;;;;31.50;70.04;100850.84;5020096;28;65297;-41
2022/10/04 04:42:51;;;;;;;17.58;14.50;;;;;;;31.58;69.62;100861.41;5019737;28;71706;-40
2022/10/04 04:45:24;;;;;;;16.42;14.48;;;;;;;31.37;69.83;100822.03;5008454;28;66782;-40
2022/10/04 04:47:57;;;;;;;20.58;13.68;;;;;;;31.61;69.57;100854.69;5018032;28;71214;-41
2022/10/04 04:50:36;;;;;;;15.30;13.80;;;;;;;31.21;69.75;100781.09;5020134;28;66318;-40
2022/10/04 04:53:15;;;;;;;15.93;13.52;;;;;;;31.59;69.73;100846.81;5020574;28;70583;-41
2022/10/04 04:55:55;;;;;;;18.05;14.07;;;;;;;31.54;70.13;100826.84;5020593;28;66560;-41
2022/10/04 04:58:38;;;;;;;15.55;13.95;;;;;;;31.61;69.87;100822.97;5019770;28;69972;-40
2022/10/04 05:01:36;;;;;;;14.30;12.82;;;;;;;31.54;70.43;100832.25;5021137;28;66365;-40
2022/10/04 05:04:11;;;;;;;15.13;13.55;;;;;;;31.61;69.71;100817.56;5015130;28;69653;-41
2022/10/04 05:06:48;;;;;;;18.52;13.35;;;;;;;31.63;69.97;100819.22;5024488;28;66510;-40
2022/10/04 05:09:25;;;;;;;15.20;13.63;;;;;;;31.64;69.88;100815.44;5020198;28;70133;-41
2022/10/04 05:12:07;;;;;;;16.05;12.77;;;;;;;31.12;69.78;100729.06;5017382;28;66033;-41
2022/10/04 05:14:45;;;;;;;15.13;13.52;;;;;;;31.17;69.57;100731.94;5017031;28;69814;-40
2022/10/04 05:17:23;;;;;;;17.77;13.18;;;;;;;31.56;69.83;100784.88;5021016;28;66061;-40
2022/10/04 05:19:58;;;;;;;15.07;13.48;;;;;;;31.61;69.52;100778.78;5015882;28;70507;-40
2022/10/04 05:22:31;;;;;;;15.85;12.00;;;;;;;31.56;69.54;100765.88;5016441;28;66399;-40
2022/10/04 05:25:08;;;;;;;14.73;12.23;;;;;;;31.64;69.58;100772.06;5015516;28;70122;-40
2022/10/04 05:27:43;;;;;;;13.90;12.52;;;;;;;31.67;69.29;100761.59;5020762;28;65283;-40
2022/10/04 05:30:42;;;;;;;13.88;12.77;;;;;;;31.30;69.32;100704.69;5020491;28;70233;-40
2022/10/04 05:33:21;;;;;;;13.52;12.20;;;;;;;31.24;69.34;100674.97;4994358;28;66366;-40
2022/10/04 05:36:20;;;;;;;14.00;12.55;;;;;;;31.70;69.63;100760.31;5020430;28;70396;-40
2022/10/04 05:39:11;;;;;;;15.63;12.35;;;;;;;31.76;69.78;100748.53;5018830;28;66623;-40
2022/10/04 05:41:58;;;;;;;14.77;12.02;;;;;;;31.31;69.63;100675.69;5020445;28;69627;-41
2022/10/04 05:44:45;;;;;;;13.63;12.30;;;;;;;31.81;69.55;100737.81;5020182;28;65356;-40
2022/10/04 05:47:22;;;;;;;12.93;11.73;;;;;;;31.64;69.08;100696.13;5019798;28;70264;-44
2022/10/04 05:50:00;;;;;;;12.85;11.65;;;;;;;31.86;69.26;100721.69;5005888;28;43292;-40
2022/10/04 05:52:37;;;;;;;14.18;11.98;;;;;;;31.49;69.27;100645.88;5019410;28;69209;-41
2022/10/04 05:55:52;;;;;;;12.77;11.57;;;;;;;31.85;69.29;100692.94;5020791;28;65940;-41
2022/10/04 05:58:47;;;;;;;13.00;11.45;;;;;;;31.88;69.31;100692.47;4977288;28;70131;-41
2022/10/04 06:01:45;;;;;;;13.18;11.88;;;;;;;31.88;69.55;100686.22;5016752;28;65488;-41
2022/10/04 06:04:35;;;;;;;13.85;11.00;;;;;;;31.84;69.68;100680.41;5012322;28;70337;-40
2022/10/04 06:07:29;;;;;;;12.68;11.68;;;;;;;31.85;69.86;100681.25;5018898;28;66147;-41
2022/10/04 06:10:03;;;;;;;12.93;11.13;;;;;;;31.95;69.25;100679.63;5003705;28;70155;-41
2022/10/04 06:12:42;;;;;;;11.18;10.30;;;;;;;31.96;69.43;100667.75;5010523;28;65761;-41
2022/10/04 06:15:20;;;;;;;13.70;11.32;;;;;;;31.97;69.30;100663.97;5017681;28;68902;-41
2022/10/04 06:18:09;;;;;;;12.05;10.88;;;;;;;31.87;69.62;100658.22;5019147;28;66476;-40
2022/10/04 06:20:53;;;;;;;11.98;10.73;;;;;;;32.00;69.80;100658.06;5018065;28;70358;-40
2022/10/04 06:23:28;;;;;;;15.35;10.98;;;;;;;31.56;69.54;100586.94;5019972;28;66531;-40
2022/10/04 06:26:08;;;;;;;11.52;10.43;;;;;;;32.07;69.16;100651.69;5018025;28;70090;-40
2022/10/04 06:28:46;;;;;;;11.52;10.48;;;;;;;31.26;69.20;100510.25;5013805;28;65376;-40
2022/10/04 06:31:53;;;;;;;16.42;11.18;;;;;;;32.00;69.25;100640.97;5019301;28;69522;-41
2022/10/04 06:34:37;;;;;;;11.73;9.88;;;;;;;32.11;69.26;100642.03;5013775;28;65480;-40
2022/10/04 06:37:09;;;;;;;11.23;10.00;;;;;;;32.17;69.18;100635.66;5012607;28;68619;-41
2022/10/04 06:40:26;;;;;;;11.10;10.20;;;;;;;32.10;69.68;100629.56;5017054;28;64921;-40
2022/10/04 06:43:21;;;;;;;11.10;10.10;;;;;;;32.11;69.68;100625.75;4998644;28;71179;-40
2022/10/04 06:46:06;;;;;;;11.13;9.95;;;;;;;32.14;69.16;100617.16;5033148;28;66359;-41
2022/10/04 06:48:56;;;;;;;11.55;10.27;;;;;;;32.24;69.27;100614.69;5018622;28;70450;-41
2022/10/04 06:51:58;;;;;;;10.68;9.18;;;;;;;32.00;69.57;100595.66;5018732;28;65787;-40
2022/10/04 06:54:56;;;;;;;10.20;9.27;;;;;;;32.23;69.05;100607.59;5008869;28;69162;-40
2022/10/04 06:57:58;;;;;;;10.30;9.10;;;;;;;32.17;69.43;100605.81;5020084;28;65783;-40
2022/10/04 07:00:33;;;;;;;;;;;;;;;31.97;70.46;100609.69;5004203;28;71618;-40
2022/10/04 07:03:11;;;;;;;10.07;9.23;;;;;;;31.82;69.24;100519.81;5018276;28;65756;-40
2022/10/04 07:05:53;;;;;;;10.75;9.75;;;;;;;32.33;69.17;100590.72;5008868;28;68996;-40
2022/10/04 07:08:46;;;;;;;10.75;9.35;;;;;;;32.27;69.28;100581.63;5017469;28;65575;-41
2022/10/04 07:11:21;;;;;;;10.02;9.05;;;;;;;32.38;69.06;100578.09;5016862;28;70099;-41
2022/10/04 07:14:00;;;;;;;11.48;9.15;;;;;;;32.40;68.82;100580.53;5009694;28;65414;-41
2022/10/04 07:16:42;;;;;;;13.23;9.15;;;;;;;32.41;68.91;100599.31;5022814;28;70176;-40
2022/10/04 07:19:25;;;;;;;9.35;8.63;;;;;;;32.42;69.27;100581.97;5023838;28;65219;-41
2022/10/04 07:22:08;;;;;;;10.95;8.90;;;;;;;32.31;68.88;100568.41;5013199;28;70168;-40
2022/10/04 07:24:51;;;;;;;12.68;9.32;;;;;;;32.50;68.85;100605.25;5022007;28;66070;-41
2022/10/04 07:27:40;;;;;;;10.23;9.25;;;;;;;32.51;68.59;100597.91;5022504;28;69668;-40
2022/10/04 07:30:19;;;;;;;9.98;9.05;;;;;;;32.52;68.83;100621.31;5011848;28;66250;-40
2022/10/04 07:32:51;;;;;;;9.82;8.68;;;;;;;32.56;68.72;100606.19;5020143;28;69843;-40
2022/10/04 07:35:52;;;;;;;11.18;9.05;;;;;;;32.46;68.95;100615.75;5022312;28;67209;-41
2022/10/04 07:38:30;;;;;;;9.85;8.85;;;;;;;32.47;68.63;100587.53;5015990;28;70071;-41
2022/10/04 07:41:08;;;;;;;9.65;8.73;;;;;;;32.57;68.63;100610.53;5020693;28;66771;-40
2022/10/04 07:43:57;;;;;;;9.35;8.45;;;;;;;32.58;68.85;100604.06;5022020;28;69728;-40
2022/10/04 07:46:45;;;;;;;9.63;8.65;;;;;;;32.49;68.95;100601.72;5005761;28;66345;-39
2022/10/04 07:49:22;;;;;;;9.88;8.88;;;;;;;32.64;68.50;100600.38;5021115;28;70405;-40
2022/10/04 07:52:23;;;;;;;10.40;8.23;;;;;;;32.23;68.59;100537.03;5022312;28;65887;-40
2022/10/04 07:55:06;;;;;;;17.55;8.57;;;;;;;32.66;68.47;100590.94;5020374;28;69938;-41
2022/10/04 07:58:06;;;;;;;9.18;8.38;;;;;;;32.61;68.86;100592.72;5009187;28;66591;-39
2022/10/04 08:00:48;;;;;;;8.90;8.18;;;;;;;32.51;68.41;100565.34;5004863;28;69825;-40
2022/10/04 08:03:30;;;;;;;8.60;7.90;;;;;;;32.75;68.45;100580.53;5018283;28;65557;-40
2022/10/04 08:06:37;;;;;;;7.93;7.43;;;;;;;32.68;68.50;100579.81;5022924;28;70560;-40
2022/10/04 08:09:33;;;;;;;8.70;7.97;;;;;;;31.88;68.23;100447.50;5013749;28;65781;-40
2022/10/04 08:12:23;;;;;;;9.27;8.05;;;;;;;32.71;68.10;100577.47;5021477;28;70049;-40
2022/10/04 08:15:29;;;;;;;11.65;8.38;;;;;;;32.83;68.15;100585.56;5031001;28;66077;-40
2022/10/04 08:18:28;;;;;;;8.98;8.05;;;;;;;32.84;68.05;100586.41;4994346;28;70185;-39
2022/10/04 08:21:05;;;;;;;19.23;8.18;;;;;;;32.78;67.86;100595.50;5022419;28;66482;-40
2022/10/04 08:23:40;;;;;;;8.82;7.85;;;;;;;32.46;67.66;100528.88;5010483;28;70505;-40
2022/10/04 08:26:29;;;;;;;17.00;8.50;;;;;;;32.95;67.49;100604.56;5019694;28;66815;-41
2022/10/04 08:29:43;;;;;;;10.15;8.43;;;;;;;32.87;67.84;100613.91;5019725;28;70059;-40
2022/10/04 08:32:40;;;;;;;12.73;8.52;;;;;;;32.96;68.02;100613.53;5017212;28;67279;-41
2022/10/04 08:35:37;;;;;;;19.88;8.80;;;;;;;32.82;67.81;100585.81;5014622;28;70875;-40
2022/10/04 08:38:16;;;;;;;10.73;8.15;;;;;;;33.00;67.57;100596.53;5011665;28;66670;-40
2022/10/04 08:41:05;;;;;;;10.27;7.68;;;;;;;33.02;67.61;100607.19;5019921;28;71297;-40
2022/10/04 08:44:05;;;;;;;16.52;8.00;;;;;;;32.96;67.89;100599.94;5019501;28;66395;-41
2022/10/04 08:46:57;;;;;;;15.52;8.30;;;;;;;33.01;67.49;100608.22;4985785;28;70883;-40
2022/10/04 08:50:02;;;;;;;9.80;7.75;;;;;;;32.89;67.88;100603.63;5021156;28;66856;-42
2022/10/04 08:52:59;;;;;;;13.80;7.88;;;;;;;33.00;67.79;100609.31;5008648;28;71564;-41
2022/10/04 08:55:38;;;;;;;16.02;7.55;;;;;;;32.45;67.78;100529.91;5013714;28;67343;-41
2022/10/04 08:58:28;;;;;;;12.65;7.38;;;;;;;32.96;68.12;100619.81;5018564;28;70671;-40
2022/10/04 09:01:47;;;;;;;17.48;7.20;;;;;;;32.90;68.34;100629.75;5016265;28;67084;-40
2022/10/04 09:04:44;;;;;;;15.88;7.22;;;;;;;32.97;68.27;100624.16;5007920;28;70124;-40
2022/10/04 09:07:40;;;;;;;10.13;6.95;;;;;;;33.01;67.95;100619.09;5020437;28;66998;-40
2022/10/04 09:10:55;;;;;;;15.15;6.53;;;;;;;32.94;68.49;100625.47;5013720;28;70862;-40
2022/10/04 09:14:02;;;;;;;21.42;6.97;;;;;;;32.52;67.93;100556.97;4997056;28;66257;-40
2022/10/04 09:16:48;;;;;;;11.70;6.18;;;;;;;32.96;67.26;100646.13;5020805;28;70876;-40
2022/10/04 09:19:47;;;;;;;9.27;6.63;;;;;;;32.96;66.90;100637.97;5014789;28;67286;-40
2022/10/04 09:22:47;;;;;;;14.95;5.80;;;;;;;32.16;67.41;100579.75;5015626;28;70125;-40
2022/10/04 09:25:23;;;;;;;18.42;6.70;;;;;;;32.10;68.19;100586.94;5015154;28;66540;-41
2022/10/04 09:28:14;;;;;;;12.10;6.50;;;;;;;32.41;68.65;100642.75;5019364;28;69708;-40
2022/10/04 09:31:00;;;;;;;14.52;6.68;;;;;;;32.33;68.76;100645.81;5013662;28;66198;-41
2022/10/04 09:33:42;;;;;;;10.38;5.82;;;;;;;32.25;69.22;100651.59;5015311;28;70841;-41
2022/10/04 09:36:20;;;;;;;11.13;6.50;;;;;;;31.73;69.74;100575.44;5017849;28;66862;-41
2022/10/04 09:39:25;;;;;;;10.82;7.25;;;;;;;32.15;69.46;100659.50;5015085;28;70853;-41
2022/10/04 09:42:37;;;;;;;12.80;6.88;;;;;;;31.82;69.69;100622.88;5021365;28;66311;-41
2022/10/04 09:45:31;;;;;;;20.33;7.40;;;;;;;31.54;69.74;100583.66;5012759;28;70924;-40
2022/10/04 09:48:41;;;;;;;17.27;6.28;;;;;;;31.99;69.67;100664.56;5015793;28;67172;-40
2022/10/04 09:51:24;;;;;;;12.98;6.65;;;;;;;32.09;69.46;100668.56;5003638;28;70813;-40
2022/10/04 09:54:26;;;;;;;11.30;5.75;;;;;;;32.01;69.52;100659.75;5017438;28;66256;-40
2022/10/04 09:57:18;;;;;;;12.27;5.80;;;;;;;31.58;69.47;100592.97;5012927;28;70934;-40
2022/10/04 10:00:22;;;;;;;13.60;6.00;;;;;;;31.73;69.24;100610.69;5012460;28;66209;-40
2022/10/04 10:03:02;;;;;;;14.27;6.03;;;;;;;32.02;69.27;100650.53;5009191;28;71025;-40
2022/10/04 10:05:59;;;;;;;21.23;6.53;;;;;;;32.02;69.23;100645.09;5020637;28;66378;-41
2022/10/04 10:09:00;;;;;;;11.23;5.82;;;;;;;31.46;69.20;100575.03;5020192;28;70610;-40
2022/10/04 10:14:55;;;;;;;14.27;5.80;;;;;;;31.93;68.88;100649.22;5012583;28;70799;-40
2022/10/04 10:17:39;;;;;;;13.20;6.57;;;;;;;31.89;69.02;100656.13;5018390;28;67512;-41
2022/10/04 10:20:43;;;;;;;20.55;6.32;;;;;;;31.90;69.69;100674.06;5017560;28;70825;-41
2022/10/04 10:23:25;;;;;;;20.10;6.78;;;;;;;31.88;69.60;100676.19;5014926;28;66907;-39
2022/10/04 10:26:12;;;;;;;22.38;7.60;;;;;;;31.84;69.86;100677.69;5011220;28;70503;-39
2022/10/04 10:29:22;;;;;;;17.30;7.25;;;;;;;31.81;70.12;100686.28;5009793;28;66474;-40
2022/10/04 10:32:19;;;;;;;22.27;8.93;;;;;;;31.86;69.77;100699.16;5009800;28;70756;-40
2022/10/04 10:35:27;;;;;;;24.60;8.15;;;;;;;30.92;70.10;100564.06;5010145;28;67367;-40
2022/10/04 10:38:34;;;;;;;22.00;7.70;;;;;;;31.78;69.93;100714.69;5009176;28;70226;-40
2022/10/04 10:41:43;;;;;;;32.30;7.63;;;;;;;31.77;67.32;100728.50;5011612;28;67162;-40
2022/10/04 10:44:31;;;;;;;16.20;5.90;;;;;;;31.75;66.12;100731.44;5010921;28;70044;-41
2022/10/04 10:47:39;;;;;;;10.07;5.20;;;;;;;31.58;65.32;100723.13;5006478;28;67225;-41
2022/10/04 10:50:32;;;;;;;18.33;5.28;;;;;;;31.94;66.41;100740.38;5007299;28;70831;-41
2022/10/04 10:53:50;;;;;;;18.55;7.15;;;;;;;31.58;66.31;100677.03;5014521;28;67472;-41
2022/10/04 10:56:46;;;;;;;29.52;7.45;;;;;;;32.14;66.65;100750.13;5013109;28;71487;-41
2022/10/04 10:59:49;;;;;;;15.80;7.72;;;;;;;32.13;66.29;100741.16;5014699;28;67159;-40
2022/10/04 11:02:31;;;;;;;19.40;7.18;;;;;;;32.25;66.39;100746.59;5011646;28;70730;-40
2022/10/04 11:05:56;;;;;;;13.50;6.72;;;;;;;32.21;66.04;100745.44;5013873;28;66651;-41
2022/10/04 11:09:05;;;;;;;14.00;6.25;;;;;;;32.21;66.17;100740.81;5014816;28;71537;-40
2022/10/04 11:12:08;;;;;;;17.70;6.28;;;;;;;32.25;65.89;100746.59;5014357;28;66656;-40
2022/10/04 11:15:05;;;;;;;9.88;4.90;;;;;;;31.38;65.44;100600.59;5015650;28;70809;-40
2022/10/04 11:18:21;;;;;;;10.25;5.18;;;;;;;32.04;65.27;100702.69;5012571;28;66897;-40
2022/10/04 11:21:25;;;;;;;10.25;4.85;;;;;;;32.26;65.40;100734.66;4965922;28;71797;-41
2022/10/04 11:24:30;;;;;;;10.00;5.00;;;;;;;32.24;65.12;100728.66;5017062;28;66909;-40
2022/10/04 11:27:12;;;;;;;6.90;4.75;;;;;;;32.31;65.22;100728.56;5015054;28;70542;-40
2022/10/04 11:30:07;;;;;;;5.95;4.50;;;;;;;32.24;65.47;100723.25;5011331;28;66076;-40
2022/10/04 11:33:07;;;;;;;8.10;4.13;;;;;;;32.32;65.47;100732.91;5011995;28;70615;-42
2022/10/04 11:35:53;;;;;;;5.35;4.80;;;;;;;32.24;65.87;100729.50;5015739;28;66416;-40
2022/10/04 11:38:48;;;;;;;6.03;4.80;;;;;;;32.32;66.11;100739.19;5015344;28;70175;-40
2022/10/04 11:41:26;;;;;;;7.95;3.85;;;;;;;32.33;66.14;100754.41;5016492;28;66933;-40
2022/10/04 11:44:23;;;;;;;4.20;3.80;;;;;;;32.32;66.03;100762.78;5006313;28;70574;-40
2022/10/04 11:47:12;;;;;;;5.43;4.22;;;;;;;31.99;65.78;100721.53;5010878;28;67066;-41
2022/10/04 11:49:51;;;;;;;4.85;4.35;;;;;;;32.28;65.74;100762.41;5018256;28;70712;-41
2022/10/04 11:52:44;;;;;;;5.60;4.32;;;;;;;32.30;65.87;100770.34;5011958;28;66943;-40
2022/10/04 11:55:41;;;;;;;5.53;4.30;;;;;;;32.19;65.88;100780.09;5011051;28;71010;-40
2022/10/04 11:58:27;;;;;;;6.97;4.60;;;;;;;31.86;65.80;100715.44;5014780;28;67255;-40
2022/10/04 12:01:19;;;;;;;9.05;4.40;;;;;;;32.26;65.70;100780.81;4998574;28;71205;-41
2022/10/04 12:04:22;;;;;;;8.77;4.97;;;;;;;32.16;65.55;100780.56;5006549;28;66943;-40
2022/10/04 12:07:07;;;;;;;5.25;4.10;;;;;;;32.22;65.64;100779.63;5006159;28;70208;-40
2022/10/04 12:10:23;;;;;;;6.53;4.53;;;;;;;32.13;65.86;100764.75;5007685;28;66996;-40
2022/10/04 12:13:33;;;;;;;7.28;4.43;;;;;;;32.18;66.30;100764.84;5008110;28;70870;-40
2022/10/04 12:16:32;;;;;;;7.78;4.75;;;;;;;32.23;66.04;100765.00;5007734;28;67040;-41
2022/10/04 12:19:39;;;;;;;4.32;4.03;;;;;;;32.09;66.25;100763.53;5005076;28;71187;-41
2022/10/04 12:22:26;;;;;;;6.68;4.32;;;;;;;32.10;66.04;100766.03;5006787;28;66258;-40
2022/10/04 12:25:25;;;;;;;9.45;3.95;;;;;;;31.26;66.31;100624.06;5009254;28;69714;-41
2022/10/04 12:28:36;;;;;;;5.97;4.38;;;;;;;32.07;66.40;100773.78;5015237;28;67097;-40
2022/10/04 12:31:21;;;;;;;5.00;4.30;;;;;;;32.14;66.70;100790.81;4990910;28;70720;-40
2022/10/04 12:34:16;;;;;;;5.53;4.68;;;;;;;32.16;66.39;100775.97;5017880;28;66982;-40
2022/10/04 12:37:11;;;;;;;7.93;4.90;;;;;;;31.66;66.45;100699.47;5018723;28;70624;-41
2022/10/04 12:40:09;;;;;;;6.05;4.90;;;;;;;31.32;66.67;100671.94;5019913;28;67005;-41
2022/10/04 12:43:01;;;;;;;4.85;4.45;;;;;;;32.07;66.80;100784.66;5019686;28;71235;-41
2022/10/04 12:45:39;;;;;;;4.90;4.50;;;;;;;32.11;67.03;100794.81;5020397;28;67021;-40
2022/10/04 12:48:14;;;;;;;5.82;4.70;;;;;;;32.13;66.83;100798.13;5018298;28;70735;-40
2022/10/04 12:51:08;;;;;;;4.85;4.35;;;;;;;31.65;66.52;100719.47;5016333;28;66225;-40